createdAt,value
2023-03-02T12:17:44.314Z,16.04
2023-03-02T12:22:11.507Z,16.37
2023-03-02T12:25:03.842Z,16.33
2023-03-02T12:27:51.829Z,16.32
2023-03-02T12:30:37.426Z,16.21
2023-03-02T12:33:23.234Z,16.06
2023-03-02T12:36:26.046Z,15.82
2023-03-02T12:39:20.871Z,15.60
2023-03-02T12:42:25.599Z,15.41
2023-03-02T12:45:50.070Z,15.26
2023-03-02T12:48:48.944Z,15.18
2023-03-02T12:51:51.861Z,15.11
2023-03-02T12:54:37.869Z,15.22
2023-03-02T12:57:23.496Z,15.26
2023-03-02T13:00:15.708Z,15.40
2023-03-02T13:03:09.871Z,15.55
2023-03-02T13:06:12.757Z,15.73
2023-03-02T13:09:00.088Z,16.13
2023-03-02T13:11:47.012Z,16.41
2023-03-02T13:14:32.646Z,16.53
2023-03-02T13:17:29.503Z,16.66
2023-03-02T13:20:15.458Z,16.70
2023-03-02T13:23:01.579Z,16.83
2023-03-02T13:25:52.444Z,16.85
2023-03-02T13:28:39.972Z,16.86
2023-03-02T13:31:25.910Z,17.01
2023-03-02T13:34:33.318Z,17.22
2023-03-02T13:37:28.992Z,17.30
2023-03-02T13:40:26.862Z,17.53
2023-03-02T13:43:33.969Z,17.78
2023-03-02T13:46:20.153Z,17.95
2023-03-02T13:49:11.459Z,18.18
2023-03-02T13:52:27.756Z,18.42
2023-03-02T13:55:18.401Z,18.48
2023-03-02T13:58:10.192Z,18.53
2023-03-02T14:00:56.117Z,18.67
2023-03-02T14:03:42.441Z,18.88
2023-03-02T14:06:28.306Z,18.80
2023-03-02T14:09:15.063Z,18.55
2023-03-02T14:12:01.030Z,18.11
2023-03-02T14:14:46.864Z,17.66
2023-03-02T14:17:32.659Z,17.45
2023-03-02T14:20:20.164Z,17.53
2023-03-02T14:23:07.898Z,17.69
2023-03-02T14:25:55.056Z,17.90
2023-03-02T14:28:42.273Z,17.98
2023-03-02T14:31:28.277Z,18.08
2023-03-02T14:34:16.334Z,18.11
2023-03-02T14:37:08.495Z,18.02
2023-03-02T14:39:55.637Z,17.87
2023-03-02T14:42:41.917Z,17.69
2023-03-02T14:45:29.826Z,17.35
2023-03-02T14:48:16.640Z,16.92
2023-03-02T14:51:05.360Z,16.48
2023-03-02T14:53:53.206Z,16.04
2023-03-02T14:56:39.254Z,15.70
2023-03-02T14:59:24.968Z,15.35
2023-03-02T15:02:24.444Z,14.98
2023-03-02T15:05:11.464Z,14.61
2023-03-02T15:07:58.790Z,14.31
2023-03-02T15:10:46.874Z,14.07
2023-03-02T15:13:32.897Z,13.82
2023-03-02T15:16:19.069Z,13.65
2023-03-02T15:19:04.869Z,13.53
2023-03-02T15:21:52.880Z,13.43
2023-03-02T15:24:38.770Z,13.38
2023-03-02T15:27:25.151Z,13.30
2023-03-02T15:30:12.541Z,13.20
2023-03-02T15:32:59.643Z,13.11
2023-03-02T15:35:45.642Z,12.95
2023-03-02T15:38:31.506Z,12.75
2023-03-02T15:41:17.750Z,12.54
2023-03-02T15:44:03.677Z,12.37
2023-03-02T15:46:57.949Z,12.18
2023-03-02T15:49:43.746Z,12.03
2023-03-02T15:52:29.749Z,11.87
2023-03-02T15:55:15.831Z,11.79
2023-03-02T15:58:02.048Z,11.60
2023-03-02T16:00:49.309Z,11.51
2023-03-02T16:03:35.294Z,11.45
2023-03-02T16:06:21.982Z,11.32
2023-03-02T16:09:07.990Z,11.31
2023-03-02T16:11:53.612Z,11.23
2023-03-02T16:14:39.474Z,11.21
2023-03-02T16:17:25.471Z,11.13
2023-03-02T16:20:11.878Z,11.05
2023-03-02T16:22:59.522Z,10.98
2023-03-02T16:25:47.526Z,10.85
2023-03-02T16:28:34.708Z,10.83
2023-03-02T16:31:21.501Z,10.80
2023-03-02T16:34:09.073Z,10.75
2023-03-02T16:36:54.972Z,10.69
2023-03-02T16:39:40.768Z,10.67
2023-03-02T16:42:30.396Z,10.64
2023-03-02T16:45:16.334Z,10.66
2023-03-02T16:48:05.259Z,10.65
2023-03-02T16:50:58.261Z,10.59
2023-03-02T16:53:46.403Z,10.57
2023-03-02T16:56:32.535Z,10.53
2023-03-02T16:59:18.515Z,10.51
2023-03-02T17:02:05.308Z,10.45
2023-03-02T17:04:51.068Z,10.40
2023-03-02T17:07:36.946Z,10.36
2023-03-02T17:10:23.032Z,10.34
2023-03-02T17:13:09.664Z,10.35
2023-03-02T17:15:55.772Z,10.34
2023-03-02T17:18:46.803Z,10.32
2023-03-02T17:21:33.654Z,10.32
2023-03-02T17:24:19.516Z,10.33
2023-03-02T17:27:13.216Z,10.30
2023-03-02T17:30:06.291Z,10.25
2023-03-02T17:32:55.528Z,10.21
2023-03-02T17:35:42.601Z,10.19
2023-03-02T17:38:28.609Z,10.16
2023-03-02T17:41:15.001Z,10.12
2023-03-02T17:44:02.549Z,10.08
2023-03-02T17:46:50.453Z,10.03
2023-03-02T17:49:40.616Z,10.02
2023-03-02T17:52:27.742Z,10.02
2023-03-02T17:55:13.949Z,10.01
2023-03-02T17:58:01.873Z,9.99
2023-03-02T18:00:47.626Z,9.98
2023-03-02T18:03:33.857Z,9.99
2023-03-02T18:06:20.831Z,9.98
2023-03-02T18:09:08.856Z,9.93
2023-03-02T18:11:54.828Z,9.97
2023-03-02T18:14:40.780Z,9.98
2023-03-02T18:17:26.437Z,10.02
2023-03-02T18:20:12.581Z,10.05
2023-03-02T18:22:59.155Z,10.11
2023-03-02T18:25:45.509Z,10.15
2023-03-02T18:28:31.813Z,10.18
2023-03-02T18:31:18.373Z,10.19
2023-03-02T18:34:04.648Z,10.21
2023-03-02T18:36:50.694Z,10.17
2023-03-02T18:39:40.715Z,10.16
2023-03-02T18:42:27.136Z,10.12
2023-03-02T18:45:22.503Z,10.08
2023-03-02T18:48:09.156Z,10.04
2023-03-02T18:50:55.459Z,9.95
2023-03-02T18:53:43.126Z,9.97
2023-03-02T18:56:29.226Z,9.95
2023-03-02T18:59:17.741Z,9.95
2023-03-02T19:02:32.094Z,9.92
2023-03-02T19:05:21.420Z,9.95
2023-03-02T19:08:08.808Z,9.97
2023-03-02T19:10:55.496Z,9.99
2023-03-02T19:13:41.575Z,9.93
2023-03-02T19:16:27.742Z,9.96
2023-03-02T19:19:14.133Z,9.97
2023-03-02T19:22:00.370Z,9.97
2023-03-02T19:24:46.824Z,10.01
2023-03-02T19:27:32.980Z,10.00
2023-03-02T19:30:26.530Z,10.05
2023-03-02T19:33:13.519Z,10.09
2023-03-02T19:36:04.403Z,10.09
2023-03-02T19:38:50.492Z,10.10
2023-03-02T19:41:36.151Z,10.07
2023-03-02T19:44:21.969Z,10.06
2023-03-02T19:47:08.022Z,10.04
2023-03-02T19:49:53.897Z,10.08
2023-03-02T19:52:43.174Z,10.11
2023-03-02T19:55:29.407Z,10.15
2023-03-02T19:58:17.504Z,10.19
2023-03-02T20:01:04.685Z,10.16
2023-03-02T20:03:52.764Z,10.24
2023-03-02T20:06:38.970Z,10.25
2023-03-02T20:09:25.152Z,10.23
2023-03-02T20:12:13.701Z,10.18
2023-03-02T20:15:00.132Z,10.11
2023-03-02T20:17:48.437Z,10.07
2023-03-02T20:20:34.760Z,10.05
2023-03-02T20:23:21.230Z,9.98
2023-03-02T20:26:07.518Z,9.92
2023-03-02T20:28:55.600Z,9.85
2023-03-02T20:31:42.333Z,9.86
2023-03-02T20:34:28.979Z,9.88
2023-03-02T20:37:15.001Z,9.89
2023-03-02T20:40:01.940Z,9.91
2023-03-02T20:42:47.864Z,9.97
2023-03-02T20:45:34.518Z,9.98
2023-03-02T20:48:22.333Z,9.99
2023-03-02T20:51:08.585Z,10.03
2023-03-02T20:53:55.114Z,10.04
2023-03-02T20:56:41.315Z,10.01
2023-03-02T20:59:27.764Z,10.05
2023-03-02T21:02:16.125Z,10.02
2023-03-02T21:05:02.218Z,10.02
2023-03-02T21:07:48.333Z,9.99
2023-03-02T21:10:37.120Z,9.97
2023-03-02T21:13:23.606Z,9.93
2023-03-02T21:16:13.455Z,9.89
2023-03-02T21:19:00.874Z,9.89
2023-03-02T21:21:47.486Z,9.89
2023-03-02T21:24:33.424Z,9.92
2023-03-02T21:27:20.403Z,9.95
2023-03-02T21:30:09.335Z,9.93
2023-03-02T21:32:56.204Z,9.93
2023-03-02T21:35:42.640Z,9.90
2023-03-02T21:38:29.763Z,9.90
2023-03-02T21:41:16.223Z,9.88
2023-03-02T21:44:05.485Z,9.85
2023-03-02T21:46:51.591Z,9.79
2023-03-02T21:49:39.761Z,9.74
2023-03-02T21:52:27.342Z,9.71
2023-03-02T21:55:15.770Z,9.70
2023-03-02T21:58:01.932Z,9.65
2023-03-02T22:00:48.894Z,9.59
2023-03-02T22:03:35.014Z,9.59
2023-03-02T22:06:24.371Z,9.57
2023-03-02T22:09:12.368Z,9.53
2023-03-02T22:11:58.447Z,9.55
2023-03-02T22:14:44.360Z,9.52
2023-03-02T22:17:30.441Z,9.50
2023-03-02T22:20:18.932Z,9.43
2023-03-02T22:23:15.398Z,9.44
2023-03-02T22:26:02.169Z,9.40
2023-03-02T22:28:48.244Z,9.42
2023-03-02T22:31:34.169Z,9.40
2023-03-02T22:34:28.819Z,9.40
2023-03-02T22:37:26.249Z,9.35
2023-03-02T22:40:33.512Z,9.37
2023-03-02T22:43:26.818Z,9.38
2023-03-02T22:46:21.890Z,9.36
2023-03-02T22:49:15.409Z,9.35
2023-03-02T22:52:06.736Z,9.38
2023-03-02T22:54:53.829Z,9.32
2023-03-02T22:57:41.349Z,9.35
2023-03-02T23:00:30.500Z,9.38
2023-03-02T23:03:20.916Z,9.39
2023-03-02T23:06:17.048Z,9.38
2023-03-02T23:09:04.775Z,9.39
2023-03-02T23:11:52.101Z,9.39
2023-03-02T23:14:55.485Z,9.34
2023-03-02T23:17:41.104Z,9.35
2023-03-02T23:20:29.902Z,9.30
2023-03-02T23:23:16.546Z,9.33
2023-03-02T23:26:02.246Z,9.26
2023-03-02T23:28:49.462Z,9.30
2023-03-02T23:31:35.527Z,9.27
2023-03-02T23:34:21.488Z,9.23
2023-03-02T23:37:07.421Z,9.23
2023-03-02T23:39:53.227Z,9.20
2023-03-02T23:42:38.868Z,9.19
2023-03-02T23:45:24.713Z,9.16
2023-03-02T23:48:10.423Z,9.11
2023-03-02T23:50:56.046Z,9.08
2023-03-02T23:53:41.835Z,9.03
2023-03-02T23:56:27.547Z,8.96
2023-03-02T23:59:13.276Z,8.90
